Time;durP1;ratioP1;P1;durP2;ratioP2;P2;SDS_P1;SDS_P2;PMS_P1;PMS_P2;Temp;Humidity;BMP_temperature;BMP_pressure;BME280_temperature;BME280_humidity;BME280_pressure;Samples;Min_cycle;Max_cycle;Signal;HPM_P1;HPM_P2
2021/05/11 00:01:07;;;;;;;2.28;0.90;;;23.60;38.90;;;;;;5014455;28;20022;-62
2021/05/11 00:03:33;;;;;;;1.60;0.70;;;23.60;38.90;;;;;;5013327;28;20112;-60
2021/05/11 00:05:59;;;;;;;1.63;0.70;;;23.60;38.90;;;;;;5013768;28;20076;-60
2021/05/11 00:08:25;;;;;;;0.75;0.52;;;23.60;38.90;;;;;;5013879;28;20139;-63
2021/05/11 00:10:51;;;;;;;1.42;0.70;;;23.60;38.90;;;;;;5010347;28;20108;-63
2021/05/11 00:13:17;;;;;;;2.00;0.80;;;23.60;38.90;;;;;;5012046;28;20026;-62
2021/05/11 00:15:43;;;;;;;0.75;0.50;;;23.60;38.90;;;;;;5014204;28;20017;-60
2021/05/11 00:18:10;;;;;;;1.42;0.60;;;23.60;38.90;;;;;;5013083;28;20041;-60
2021/05/11 00:20:36;;;;;;;1.02;0.50;;;23.60;39.00;;;;;;5013532;28;20080;-61
2021/05/11 00:23:02;;;;;;;1.25;0.63;;;23.60;39.00;;;;;;5014017;28;20057;-60
2021/05/11 00:25:28;;;;;;;0.90;0.60;;;23.50;39.00;;;;;;5014278;28;20026;-62
2021/05/11 00:27:54;;;;;;;1.63;0.82;;;23.50;39.00;;;;;;5013061;28;20032;-61
2021/05/11 00:30:20;;;;;;;1.73;0.70;;;23.50;39.00;;;;;;5013627;28;20052;-61
2021/05/11 00:32:45;;;;;;;1.05;0.55;;;23.50;39.00;;;;;;5014003;28;20061;-60
2021/05/11 00:35:11;;;;;;;0.77;0.60;;;23.50;39.00;;;;;;5012039;28;20040;-62
2021/05/11 00:37:37;;;;;;;0.60;0.50;;;23.50;39.10;;;;;;5012864;28;20042;-66
2021/05/11 00:40:08;;;;;;;1.50;0.65;;;23.50;39.10;;;;;;5014076;28;20021;-59
2021/05/11 00:42:34;;;;;;;1.92;0.80;;;23.50;39.10;;;;;;5012993;28;20386;-59
2021/05/11 00:45:01;;;;;;;1.10;0.50;;;23.50;39.10;;;;;;5013287;28;20699;-62
2021/05/11 00:47:27;;;;;;;1.80;0.98;;;23.50;39.10;;;;;;5013641;28;20032;-59
2021/05/11 00:49:53;;;;;;;0.90;0.57;;;23.50;39.10;;;;;;5014395;28;20507;-54
2021/05/11 00:52:18;;;;;;;0.70;0.45;;;23.50;39.20;;;;;;5010814;28;20326;-60
2021/05/11 00:54:46;;;;;;;1.73;0.70;;;23.50;39.20;;;;;;5013801;28;20038;-56
2021/05/11 00:57:12;;;;;;;1.05;0.65;;;23.50;39.20;;;;;;5013547;28;20358;-59
2021/05/11 00:59:38;;;;;;;0.85;0.65;;;23.50;39.30;;;;;;5014081;28;20029;-57
2021/05/11 01:02:07;;;;;;;0.47;0.47;;;23.40;39.30;;;;;;5014108;28;20026;-58
2021/05/11 01:04:33;;;;;;;1.38;0.73;;;23.50;39.40;;;;;;5013899;28;20029;-62
2021/05/11 01:06:59;;;;;;;2.25;0.60;;;23.50;39.40;;;;;;5011887;28;20034;-59
2021/05/11 01:09:26;;;;;;;1.60;0.80;;;23.40;39.40;;;;;;5011953;28;20046;-61
2021/05/11 01:11:54;;;;;;;1.13;0.55;;;23.40;39.40;;;;;;5013126;28;20389;-62
2021/05/11 01:14:21;;;;;;;1.17;0.65;;;23.40;39.50;;;;;;5012483;28;20326;-59
2021/05/11 01:16:53;;;;;;;1.65;0.60;;;23.40;39.50;;;;;;5012536;28;20054;-59
2021/05/11 01:26:57;;;;;;;1.80;0.75;;;23.40;39.60;;;;;;5013699;28;20030;-58
2021/05/11 01:29:35;;;;;;;1.02;0.50;;;23.40;39.70;;;;;;5013266;28;20021;-61
2021/05/11 01:57:33;;;;;;;1.63;0.80;;;23.30;40.20;;;;;;5012611;28;20026;-59
2021/05/11 02:22:35;;;;;;;1.60;0.80;;;23.20;40.50;;;;;;5016130;28;20100;-61
2021/05/11 02:24:08;;;;;;;0.93;0.73;;;23.30;40.70;;;;;;4969444;28;20165;-60
2021/05/11 02:26:34;;;;;;;1.80;0.80;;;23.20;40.70;;;;;;5016592;28;20030;-58
2021/05/11 02:29:01;;;;;;;0.82;0.50;;;23.30;40.80;;;;;;5014481;28;20026;-62
2021/05/11 02:31:26;;;;;;;0.77;0.65;;;23.20;40.90;;;;;;5014444;28;20433;-59
2021/05/11 02:33:52;;;;;;;0.68;0.50;;;23.30;41.00;;;;;;5015040;28;20061;-61
2021/05/11 02:36:18;;;;;;;1.13;0.60;;;23.20;41.00;;;;;;5015892;28;20088;-59
2021/05/11 02:38:44;;;;;;;0.85;0.52;;;23.20;41.00;;;;;;5015578;28;20042;-60
2021/05/11 02:41:09;;;;;;;1.08;0.68;;;23.20;41.10;;;;;;5015037;28;20045;-62
2021/05/11 02:43:38;;;;;;;1.63;0.80;;;23.30;41.20;;;;;;5013448;28;20072;-59
2021/05/11 02:46:03;;;;;;;1.30;0.80;;;23.20;41.20;;;;;;5015051;28;20072;-58
2021/05/11 02:48:29;;;;;;;2.03;0.60;;;23.20;41.20;;;;;;5015145;28;20053;-61
2021/05/11 02:50:55;;;;;;;2.13;0.80;;;23.20;41.30;;;;;;5013623;28;20449;-60
2021/05/11 02:53:21;;;;;;;1.75;0.82;;;23.20;41.30;;;;;;5015370;28;20041;-59
2021/05/11 02:55:47;;;;;;;2.42;0.88;;;23.20;41.30;;;;;;5015065;28;20077;-62
2021/05/11 02:58:14;;;;;;;1.10;0.60;;;23.20;41.40;;;;;;5015062;28;20042;-62
2021/05/11 03:00:42;;;;;;;1.98;0.95;;;23.20;41.40;;;;;;5014550;28;20437;-61
2021/05/11 03:03:08;;;;;;;1.20;0.80;;;23.20;41.50;;;;;;5014659;28;20069;-62
2021/05/11 03:05:34;;;;;;;0.98;0.60;;;23.20;41.50;;;;;;5014518;28;20448;-58
2021/05/11 03:08:00;;;;;;;1.25;0.60;;;23.20;41.50;;;;;;5014923;28;20105;-59
2021/05/11 03:10:26;;;;;;;2.40;0.80;;;23.20;41.60;;;;;;5014310;28;20033;-61
2021/05/11 03:12:51;;;;;;;1.58;0.80;;;23.20;41.60;;;;;;5014642;28;20036;-60
2021/05/11 03:15:17;;;;;;;1.77;0.90;;;23.20;41.60;;;;;;5014772;28;20042;-59
2021/05/11 03:17:43;;;;;;;1.63;0.88;;;23.20;41.60;;;;;;5014547;28;20116;-61
2021/05/11 03:20:11;;;;;;;2.10;1.00;;;23.20;41.70;;;;;;5012958;28;20029;-60
2021/05/11 03:22:37;;;;;;;2.22;0.93;;;23.20;41.70;;;;;;5013653;28;20057;-59
2021/05/11 03:25:03;;;;;;;1.30;0.95;;;23.20;41.80;;;;;;5013168;28;20041;-55
2021/05/11 03:27:29;;;;;;;1.30;0.90;;;23.20;41.80;;;;;;5013938;28;20129;-62
2021/05/11 03:29:55;;;;;;;1.33;0.80;;;23.20;42.50;;;;;;5013939;28;20468;-61
2021/05/11 03:32:21;;;;;;;1.00;0.80;;;23.20;41.90;;;;;;5012411;28;20030;-61
2021/05/11 03:34:47;;;;;;;1.45;0.73;;;23.20;41.90;;;;;;5014025;28;20125;-57
2021/05/11 03:37:13;;;;;;;1.88;0.82;;;23.20;41.90;;;;;;5013543;28;20065;-62
2021/05/11 03:39:40;;;;;;;1.73;0.70;;;23.10;41.80;;;;;;5012332;28;20072;-63
2021/05/11 03:42:13;;;;;;;2.63;1.02;;;23.10;41.90;;;;;;5014617;28;20132;-58
2021/05/11 03:44:41;;;;;;;1.05;0.70;;;23.20;42.00;;;;;;5012634;28;20030;-58
2021/05/11 03:47:07;;;;;;;1.33;0.85;;;23.10;42.00;;;;;;5014109;28;21665;-62
2021/05/11 03:49:32;;;;;;;2.67;1.05;;;23.10;41.90;;;;;;5012610;28;20053;-60
2021/05/11 03:51:58;;;;;;;2.33;0.75;;;23.10;42.00;;;;;;5014571;28;20326;-58
2021/05/11 03:54:25;;;;;;;2.17;1.05;;;23.10;42.00;;;;;;5014167;28;20441;-62
2021/05/11 03:56:50;;;;;;;1.88;1.00;;;23.10;42.00;;;;;;5014824;28;20041;-58
2021/05/11 03:59:17;;;;;;;2.15;0.95;;;23.10;42.00;;;;;;5012798;28;20113;-62
2021/05/11 04:01:43;;;;;;;1.35;0.98;;;23.10;42.00;;;;;;5012615;28;20043;-59
2021/05/11 04:04:09;;;;;;;0.98;0.82;;;23.10;42.10;;;;;;5014410;28;20497;-62
2021/05/11 04:06:34;;;;;;;1.00;0.75;;;23.10;42.10;;;;;;5013983;28;20038;-60
2021/05/11 04:16:24;;;;;;;1.42;0.80;;;23.10;42.20;;;;;;5014140;28;20026;-57
2021/05/11 04:18:50;;;;;;;1.42;0.80;;;23.10;42.20;;;;;;5011505;28;20322;-63
2021/05/11 04:21:17;;;;;;;1.33;0.90;;;23.10;42.30;;;;;;5012177;28;20038;-58
2021/05/11 04:23:47;;;;;;;1.67;0.98;;;23.10;42.30;;;;;;5013840;28;20021;-60
2021/05/11 04:26:13;;;;;;;1.92;0.90;;;23.10;42.30;;;;;;5011636;28;20073;-58
2021/05/11 04:28:40;;;;;;;1.63;0.90;;;23.10;42.30;;;;;;5012741;28;20026;-61
2021/05/11 04:31:06;;;;;;;1.42;0.85;;;23.10;42.40;;;;;;5012246;28;20072;-63
2021/05/11 04:33:32;;;;;;;2.40;0.90;;;23.10;42.40;;;;;;5013256;28;20030;-62
2021/05/11 04:35:58;;;;;;;1.67;0.90;;;23.10;42.40;;;;;;5012858;28;20050;-59
2021/05/11 04:38:25;;;;;;;1.50;0.73;;;23.10;42.40;;;;;;5013688;28;20361;-61
2021/05/11 04:40:51;;;;;;;1.58;1.00;;;23.10;42.40;;;;;;5012811;28;20323;-59
2021/05/11 04:43:18;;;;;;;3.40;1.10;;;23.10;42.50;;;;;;5013569;28;20108;-60
2021/05/11 04:45:45;;;;;;;1.13;0.90;;;23.10;42.50;;;;;;5013684;28;20042;-61
2021/05/11 04:48:11;;;;;;;2.10;0.98;;;23.00;42.40;;;;;;5013229;28;20459;-59
2021/05/11 04:50:37;;;;;;;1.30;0.70;;;23.10;42.40;;;;;;5013071;28;20050;-63
2021/05/11 04:53:03;;;;;;;1.80;0.98;;;23.00;42.40;;;;;;5013947;28;20061;-59
2021/05/11 04:55:29;;;;;;;2.03;1.02;;;23.00;42.40;;;;;;5011501;28;20050;-60
2021/05/11 04:57:55;;;;;;;2.08;0.85;;;23.00;42.40;;;;;;5013572;28;20029;-60
2021/05/11 05:00:21;;;;;;;1.55;1.08;;;23.00;42.40;;;;;;5012924;28;20097;-61
2021/05/11 05:02:48;;;;;;;1.15;0.80;;;23.00;42.40;;;;;;5012117;28;20022;-60
2021/05/11 05:05:15;;;;;;;1.63;0.90;;;23.00;42.40;;;;;;5012895;28;20476;-59
2021/05/11 05:07:41;;;;;;;1.95;0.98;;;23.00;42.40;;;;;;5011753;28;20029;-61
2021/05/11 05:10:09;;;;;;;1.95;0.98;;;23.00;42.40;;;;;;5012259;28;20042;-60
2021/05/11 05:12:35;;;;;;;1.92;1.10;;;23.00;42.40;;;;;;5012144;28;20029;-62
2021/05/11 05:15:03;;;;;;;1.70;0.77;;;23.00;42.40;;;;;;5012678;28;20045;-59
2021/05/11 05:17:28;;;;;;;1.33;0.80;;;23.00;42.50;;;;;;5011352;28;20072;-63
2021/05/11 05:19:54;;;;;;;0.70;0.60;;;23.00;42.50;;;;;;5012274;28;20029;-60
2021/05/11 05:22:21;;;;;;;1.67;0.93;;;23.00;42.50;;;;;;5010161;28;20453;-59
2021/05/11 05:24:53;;;;;;;1.20;0.90;;;23.00;42.50;;;;;;5012691;28;20042;-60
2021/05/11 05:27:24;;;;;;;1.42;0.88;;;23.00;42.50;;;;;;5012198;28;20090;-61
2021/05/11 05:29:50;;;;;;;2.53;1.20;;;23.00;42.50;;;;;;5011736;28;20450;-59
2021/05/11 05:32:16;;;;;;;1.77;0.88;;;23.00;42.50;;;;;;5012242;28;20366;-63
2021/05/11 05:34:43;;;;;;;2.03;1.00;;;23.00;42.60;;;;;;5011830;28;20037;-61
2021/05/11 05:37:09;;;;;;;1.98;0.95;;;23.00;42.60;;;;;;5010499;28;20388;-61
2021/05/11 05:39:45;;;;;;;1.88;0.85;;;23.00;42.60;;;;;;5011839;28;20025;-59
2021/05/11 05:42:11;;;;;;;2.17;1.00;;;23.00;42.60;;;;;;5009561;28;20030;-62
2021/05/11 05:44:37;;;;;;;1.65;0.80;;;23.00;42.60;;;;;;5011822;28;20022;-60
2021/05/11 05:47:04;;;;;;;1.75;0.90;;;23.00;42.70;;;;;;5022836;28;20029;-60
2021/05/11 05:49:42;;;;;;;1.42;0.70;;;23.00;42.70;;;;;;5016982;28;20040;-63
2021/05/11 05:52:14;;;;;;;1.25;0.70;;;23.00;42.70;;;;;;5015335;28;20059;-62
2021/05/11 05:54:40;;;;;;;1.23;0.82;;;23.00;42.80;;;;;;5015747;28;20041;-63
2021/05/11 05:57:06;;;;;;;1.00;0.90;;;23.00;42.80;;;;;;5014519;28;20089;-62
2021/05/11 05:59:34;;;;;;;1.23;0.68;;;23.00;42.80;;;;;;4994526;28;20060;-62
2021/05/11 06:02:00;;;;;;;1.35;0.80;;;23.00;42.90;;;;;;4994296;28;20078;-61
2021/05/11 06:04:26;;;;;;;2.03;0.90;;;23.00;42.90;;;;;;4994801;28;20537;-62
2021/05/11 06:06:51;;;;;;;1.80;0.88;;;23.00;42.90;;;;;;4976598;28;20164;-63
2021/05/11 06:09:20;;;;;;;1.85;0.90;;;23.00;43.00;;;;;;4991894;28;20366;-62
2021/05/11 06:11:52;;;;;;;1.55;0.75;;;23.00;43.00;;;;;;4994011;28;20046;-60
2021/05/11 06:17:01;;;;;;;1.15;0.80;;;23.00;43.00;;;;;;4977164;28;20057;-62
2021/05/11 06:17:14;;;;;;;1.33;0.90;;;23.00;43.10;;;;;;4980174;28;20042;-62
2021/05/11 06:19:41;;;;;;;0.77;0.70;;;23.00;43.10;;;;;;4993743;28;20050;-61
2021/05/11 06:22:07;;;;;;;1.55;1.08;;;23.00;43.10;;;;;;4992079;28;20027;-63
2021/05/11 06:24:36;;;;;;;1.65;0.80;;;23.00;43.20;;;;;;4993701;28;20076;-60
2021/05/11 06:27:02;;;;;;;1.58;1.00;;;23.00;43.20;;;;;;4993080;28;20105;-55
2021/05/11 06:29:30;;;;;;;1.25;0.80;;;23.00;43.20;;;;;;4978517;28;20189;-57
2021/05/11 06:31:56;;;;;;;0.80;0.80;;;23.00;43.30;;;;;;5014311;28;20323;-62
2021/05/11 06:34:22;;;;;;;0.98;0.75;;;23.00;43.30;;;;;;5015539;28;20049;-59
2021/05/11 06:36:48;;;;;;;1.33;0.90;;;23.00;43.40;;;;;;5014507;28;20041;-61
2021/05/11 06:39:15;;;;;;;2.40;0.80;;;23.00;43.40;;;;;;5015039;28;20022;-61
2021/05/11 06:41:45;;;;;;;1.48;0.90;;;23.00;43.40;;;;;;5014926;28;20042;-61
2021/05/11 06:44:41;;;;;;;1.50;0.88;;;23.00;43.40;;;;;;5012224;28;20104;-60
2021/05/11 06:54:59;;;;;;;0.90;0.80;;;23.00;43.50;;;;;;5013896;28;20042;-58
2021/05/11 06:57:25;;;;;;;2.40;1.15;;;23.00;43.50;;;;;;5015164;28;20034;-62
2021/05/11 06:59:51;;;;;;;2.47;1.02;;;23.00;43.50;;;;;;5015483;28;20033;-60
2021/05/11 07:02:17;;;;;;;1.55;0.93;;;23.10;43.60;;;;;;5012428;28;20029;-59
2021/05/11 07:04:45;;;;;;;1.40;0.88;;;23.10;43.60;;;;;;5008319;28;20123;-62
2021/05/11 07:07:14;;;;;;;2.13;0.85;;;23.10;43.60;;;;;;5012669;28;20041;-58
2021/05/11 07:14:58;;;;;;;2.05;1.00;;;23.10;43.70;;;;;;5012165;28;20406;-56
2021/05/11 07:17:24;;;;;;;4.13;0.98;;;23.10;43.80;;;;;;5014850;28;20033;-61
2021/05/11 07:19:50;;;;;;;1.85;0.98;;;23.10;43.80;;;;;;5014827;28;20112;-56
2021/05/11 07:22:16;;;;;;;1.88;0.80;;;23.10;43.80;;;;;;5014189;28;20354;-62
2021/05/11 07:24:44;;;;;;;2.53;0.90;;;23.20;43.80;;;;;;5015243;28;20404;-58
2021/05/11 07:29:53;;;;;;;1.30;0.80;;;23.20;43.70;;;;;;5015425;28;20117;-56
2021/05/11 07:32:19;;;;;;;1.50;0.90;;;23.20;43.60;;;;;;5014567;28;20026;-59
2021/05/11 07:34:48;;;;;;;1.77;1.10;;;23.20;43.50;;;;;;5027225;28;20053;-61
2021/05/11 07:37:13;;;;;;;1.50;0.80;;;23.20;43.40;;;;;;5011703;28;20107;-59
2021/05/11 07:39:44;;;;;;;2.08;1.17;;;23.20;43.30;;;;;;5012442;28;20026;-59
2021/05/11 07:42:11;;;;;;;2.33;0.90;;;23.20;43.30;;;;;;5010433;28;20025;-55
2021/05/11 07:44:44;;;;;;;1.45;0.70;;;23.20;43.30;;;;;;5023783;28;20081;-61
2021/05/11 08:03:26;;;;;;;1.25;0.77;;;23.40;43.20;;;;;;5013132;28;20038;-61
2021/05/11 08:16:56;;;;;;;0.80;0.63;;;23.40;42.60;;;;;;5006234;28;20188;-62
2021/05/11 08:27:34;;;;;;;1.35;0.75;;;23.50;42.60;;;;;;5015154;28;20470;-56
2021/05/11 08:29:59;;;;;;;1.73;0.95;;;23.50;42.70;;;;;;5015700;28;20438;-62
2021/05/11 08:32:25;;;;;;;2.42;0.98;;;23.50;42.80;;;;;;5015535;28;20084;-60
2021/05/11 08:34:51;;;;;;;1.23;0.70;;;23.50;42.90;;;;;;5015243;28;20115;-59
2021/05/11 08:37:20;;;;;;;2.03;0.70;;;23.40;42.90;;;;;;5013771;28;20429;-56
2021/05/11 08:39:47;;;;;;;2.20;1.10;;;23.50;43.00;;;;;;5014299;28;20025;-60
2021/05/11 08:42:13;;;;;;;1.40;0.82;;;23.50;43.10;;;;;;5015253;28;20100;-59
2021/05/11 08:44:39;;;;;;;1.67;0.88;;;23.50;43.10;;;;;;5014268;28;20076;-59
2021/05/11 08:47:05;;;;;;;1.70;1.00;;;23.50;43.10;;;;;;5013849;28;20030;-60
2021/05/11 08:49:32;;;;;;;2.22;0.90;;;23.50;43.10;;;;;;5014898;28;20041;-58
2021/05/11 08:52:17;;;;;;;2.08;1.17;;;23.50;43.20;;;;;;5015103;28;20418;-59
2021/05/11 09:25:23;;;;;;;4.18;1.08;;;23.40;43.30;;;;;;5013200;28;20105;-59
2021/05/11 09:33:02;;;;;;;2.10;1.15;;;23.40;43.30;;;;;;5014108;28;20058;-61
2021/05/11 10:49:35;;;;;;;2.03;0.98;;;23.50;42.30;;;;;;4998094;28;20030;-59
2021/05/11 10:52:20;;;;;;;1.50;0.85;;;23.50;42.20;;;;;;5004209;28;20029;-60
2021/05/11 10:55:02;;;;;;;1.60;1.10;;;23.60;42.10;;;;;;5015588;28;20450;-60
2021/05/11 10:57:36;;;;;;;2.08;1.10;;;23.60;42.00;;;;;;5015278;28;20034;-58
2021/05/11 11:00:27;;;;;;;1.02;0.70;;;23.60;41.90;;;;;;5016186;28;20029;-59
2021/05/11 11:03:14;;;;;;;1.73;0.77;;;23.60;41.70;;;;;;5016876;28;20113;-56
2021/05/11 11:05:44;;;;;;;0.80;0.70;;;23.60;41.60;;;;;;5016714;28;20037;-58
2021/05/11 11:08:26;;;;;;;1.05;0.70;;;23.60;41.50;;;;;;5016111;28;20456;-53
2021/05/11 11:11:02;;;;;;;1.15;0.63;;;23.70;41.50;;;;;;5016805;28;20030;-54
2021/05/11 11:13:28;;;;;;;1.60;0.80;;;23.70;41.40;;;;;;5014279;28;20077;-57
2021/05/11 11:16:01;;;;;;;1.60;0.90;;;23.70;41.40;;;;;;5015931;28;20033;-53
2021/05/11 11:18:27;;;;;;;1.05;0.55;;;23.70;41.30;;;;;;5002651;28;20091;-62
2021/05/11 11:23:56;;;;;;;1.55;0.70;;;23.70;41.20;;;;;;4994290;28;20038;-53
2021/05/11 11:26:33;;;;;;;1.02;0.60;;;23.80;41.20;;;;;;5015016;28;20122;-56
2021/05/11 11:29:16;;;;;;;0.73;0.47;;;23.90;41.20;;;;;;5016228;28;20430;-60
2021/05/11 11:31:47;;;;;;;0.95;0.50;;;23.90;41.20;;;;;;5014231;28;20030;-61
2021/05/11 11:34:24;;;;;;;1.40;0.70;;;23.90;41.20;;;;;;5012506;28;20030;-58
2021/05/11 11:37:02;;;;;;;1.90;0.70;;;24.00;41.20;;;;;;5014690;28;20091;-54
2021/05/11 11:39:34;;;;;;;2.30;0.70;;;24.00;41.20;;;;;;5015802;28;20021;-58
2021/05/11 11:42:05;;;;;;;2.22;0.70;;;24.10;41.10;;;;;;5016031;28;20183;-60
2021/05/11 11:44:38;;;;;;;1.35;1.02;;;24.10;41.10;;;;;;5014655;28;20453;-58
2021/05/11 11:47:09;;;;;;;2.33;1.02;;;24.10;41.10;;;;;;5015414;28;20032;-56
2021/05/11 11:49:42;;;;;;;2.08;0.90;;;24.20;41.30;;;;;;5015735;28;20108;-61
2021/05/11 11:52:24;;;;;;;1.25;0.77;;;24.20;41.30;;;;;;5014129;28;20025;-60
2021/05/11 11:57:46;;;;;;;2.28;0.95;;;24.20;41.20;;;;;;5015927;28;20034;-57
2021/05/11 12:00:15;;;;;;;1.52;0.75;;;24.20;41.10;;;;;;5013612;28;20037;-61
2021/05/11 12:02:53;;;;;;;1.27;0.60;;;24.20;41.00;;;;;;5014735;28;20034;-58
2021/05/11 12:05:20;;;;;;;3.80;0.85;;;24.20;40.80;;;;;;5013821;28;20457;-60
2021/05/11 12:10:25;;;;;;;1.55;0.50;;;24.20;40.70;;;;;;5014859;28;20058;-54
2021/05/11 12:12:52;;;;;;;1.63;0.57;;;24.20;40.60;;;;;;5014445;28;20113;-64
2021/05/11 12:15:20;;;;;;;1.38;0.80;;;24.30;40.50;;;;;;5011100;28;20030;-63
2021/05/11 12:18:19;;;;;;;2.40;0.70;;;24.30;40.40;;;;;;5012285;28;20141;-59
2021/05/11 12:20:46;;;;;;;1.13;0.52;;;24.30;40.30;;;;;;5008388;28;20385;-61
2021/05/11 12:23:15;;;;;;;1.73;0.73;;;24.30;40.40;;;;;;5014949;28;20125;-60
2021/05/11 12:25:59;;;;;;;1.27;0.68;;;24.30;40.40;;;;;;5014657;28;20049;-61
2021/05/11 12:28:29;;;;;;;1.73;0.80;;;24.40;40.50;;;;;;5000348;28;20409;-64
2021/05/11 12:30:55;;;;;;;1.30;0.88;;;24.40;40.70;;;;;;5014773;28;20338;-63
2021/05/11 12:33:31;;;;;;;2.65;0.82;;;24.40;41.00;;;;;;5011899;28;20121;-61
2021/05/11 12:36:00;;;;;;;1.85;0.93;;;24.40;41.20;;;;;;5018973;28;20033;-64
2021/05/11 12:38:28;;;;;;;1.58;0.95;;;24.40;41.40;;;;;;5014618;28;20108;-62
2021/05/11 12:41:08;;;;;;;1.58;0.93;;;24.40;41.60;;;;;;5014660;28;20394;-63
2021/05/11 12:43:48;;;;;;;3.17;1.10;;;24.40;41.80;;;;;;5012467;28;20101;-62
2021/05/11 12:46:14;;;;;;;1.10;0.82;;;24.50;42.10;;;;;;5011108;28;20038;-61
2021/05/11 12:49:16;;;;;;;1.55;1.00;;;24.50;42.20;;;;;;5012053;28;20029;-53
2021/05/11 12:51:45;;;;;;;2.05;0.90;;;24.50;42.60;;;;;;5010425;28;20068;-63
2021/05/11 12:54:48;;;;;;;1.83;0.75;;;24.60;42.80;;;;;;5013242;28;20353;-62
2021/05/11 12:57:33;;;;;;;0.70;0.70;;;24.60;43.00;;;;;;5008228;28;20092;-57
2021/05/11 13:00:10;;;;;;;1.50;0.82;;;24.60;43.20;;;;;;5012812;28;20353;-53
2021/05/11 13:02:45;;;;;;;1.30;0.90;;;24.60;43.30;;;;;;5013446;28;20061;-55
2021/05/11 13:16:26;;;;;;;0.80;0.68;;;24.70;43.80;;;;;;5012939;28;20057;-53
2021/05/11 13:32:59;;;;;;;1.92;1.00;;;24.80;43.80;;;;;;4999315;28;20408;-61
2021/05/11 13:35:27;;;;;;;1.35;1.00;;;24.70;43.70;;;;;;5011413;28;20131;-60
2021/05/11 13:37:52;;;;;;;1.60;1.10;;;24.80;43.70;;;;;;5012736;28;20068;-62
2021/05/11 13:40:19;;;;;;;1.35;1.10;;;24.70;43.60;;;;;;5010425;28;20101;-55
2021/05/11 13:42:46;;;;;;;3.15;0.88;;;24.70;43.60;;;;;;5013046;28;20040;-60
2021/05/11 13:45:12;;;;;;;1.88;0.95;;;24.70;43.50;;;;;;5010795;28;21033;-55
2021/05/11 13:47:43;;;;;;;1.27;0.90;;;24.70;43.40;;;;;;5007723;28;20083;-53
2021/05/11 13:50:12;;;;;;;1.40;0.82;;;24.70;43.40;;;;;;5007603;28;20034;-62
2021/05/11 13:52:38;;;;;;;1.35;0.70;;;24.70;43.40;;;;;;5004369;28;20357;-61
2021/05/11 13:55:18;;;;;;;1.40;0.80;;;24.70;43.30;;;;;;5006950;28;20454;-64
2021/05/11 14:03:19;;;;;;;;;;;24.70;43.10;;;;;;5011495;28;20058;-62
2021/05/11 14:05:46;;;;;;;1.27;0.70;;;24.60;43.10;;;;;;5012294;28;19910;-64
2021/05/11 14:08:13;;;;;;;1.02;0.60;;;24.60;43.10;;;;;;5014429;28;20099;-61
2021/05/11 14:10:41;;;;;;;1.42;0.70;;;24.60;43.20;;;;;;5013947;28;20396;-61
2021/05/11 14:13:09;;;;;;;1.55;0.60;;;24.60;43.30;;;;;;5015496;28;20026;-64
2021/05/11 14:15:38;;;;;;;0.75;0.60;;;24.60;43.20;;;;;;5016810;28;20042;-66
2021/05/11 14:18:09;;;;;;;1.42;0.60;;;24.60;43.30;;;;;;5016020;28;20397;-63
2021/05/11 14:20:36;;;;;;;0.95;0.75;;;24.60;43.40;;;;;;5017967;28;20345;-65
2021/05/11 14:23:04;;;;;;;0.93;0.60;;;24.60;43.40;;;;;;5013140;28;20175;-61
2021/05/11 14:25:31;;;;;;;1.27;0.63;;;24.60;43.40;;;;;;5014917;28;20427;-63
2021/05/11 14:28:04;;;;;;;1.17;0.65;;;24.60;43.40;;;;;;5005091;28;20045;-64
2021/05/11 14:30:31;;;;;;;0.70;0.50;;;24.60;43.40;;;;;;5014177;28;20026;-58
2021/05/11 14:32:59;;;;;;;1.23;0.80;;;24.60;43.40;;;;;;4993196;28;20034;-64
2021/05/11 14:35:26;;;;;;;1.38;0.52;;;24.60;43.40;;;;;;5012924;28;20042;-59
2021/05/11 14:37:52;;;;;;;1.67;0.82;;;24.60;43.50;;;;;;5013688;28;20026;-59
2021/05/11 14:40:22;;;;;;;1.50;0.63;;;24.60;43.40;;;;;;5007703;28;20036;-62
2021/05/11 14:42:48;;;;;;;1.35;0.60;;;24.60;43.50;;;;;;5016970;28;20042;-64
2021/05/11 14:45:26;;;;;;;0.65;0.60;;;24.60;43.50;;;;;;5015702;28;20030;-61
2021/05/11 14:47:59;;;;;;;1.45;0.68;;;24.60;43.40;;;;;;5017312;28;20052;-63
2021/05/11 14:50:31;;;;;;;1.20;0.75;;;24.60;43.40;;;;;;5008038;28;20069;-60
2021/05/11 14:53:00;;;;;;;1.10;0.70;;;24.60;43.40;;;;;;5015694;28;20036;-64
2021/05/11 14:55:27;;;;;;;0.90;0.70;;;24.60;43.40;;;;;;5017116;28;20038;-62
2021/05/11 14:57:56;;;;;;;1.42;0.77;;;24.60;43.40;;;;;;5016592;28;20033;-61
2021/05/11 15:00:24;;;;;;;0.57;0.47;;;24.60;43.40;;;;;;5015501;28;20409;-63
2021/05/11 15:02:52;;;;;;;0.70;0.60;;;24.60;43.40;;;;;;5016011;28;20026;-62
2021/05/11 15:05:20;;;;;;;0.90;0.60;;;24.60;43.40;;;;;;5015679;28;20038;-63
2021/05/11 15:07:53;;;;;;;1.10;0.70;;;24.60;43.40;;;;;;5014045;28;20068;-60
2021/05/11 15:10:22;;;;;;;1.27;0.70;;;24.60;43.50;;;;;;5014893;28;20358;-62
2021/05/11 15:12:56;;;;;;;1.35;0.80;;;24.60;43.50;;;;;;5016344;28;20453;-63
2021/05/11 15:15:23;;;;;;;1.08;0.70;;;24.50;43.40;;;;;;5016029;28;20520;-62
2021/05/11 15:20:20;;;;;;;0.90;0.70;;;24.50;43.40;;;;;;5015584;28;20131;-65
2021/05/11 15:22:52;;;;;;;0.95;0.60;;;24.60;43.50;;;;;;5013100;28;20128;-62
2021/05/11 15:25:22;;;;;;;1.13;0.80;;;24.60;43.50;;;;;;5011095;28;20023;-60
2021/05/11 15:27:51;;;;;;;1.38;0.82;;;24.60;43.50;;;;;;5014228;28;20078;-61
2021/05/11 15:30:17;;;;;;;1.08;0.80;;;24.50;43.40;;;;;;5014939;28;20460;-60
2021/05/11 15:32:55;;;;;;;1.60;0.82;;;24.50;43.40;;;;;;5013814;28;20049;-63
2021/05/11 15:35:23;;;;;;;1.50;0.90;;;24.50;43.40;;;;;;5012934;28;20030;-64
2021/05/11 15:37:53;;;;;;;1.10;0.77;;;24.50;43.50;;;;;;5015545;28;20022;-60
2021/05/11 15:40:21;;;;;;;1.00;0.90;;;24.50;43.50;;;;;;5015217;28;20044;-57
2021/05/11 15:42:48;;;;;;;1.50;1.05;;;24.50;43.50;;;;;;5014644;28;20331;-59
2021/05/11 15:45:15;;;;;;;1.27;0.95;;;24.50;43.60;;;;;;5014517;28;20041;-60
2021/05/11 15:47:52;;;;;;;1.10;1.02;;;24.50;43.80;;;;;;5014822;28;20033;-56
2021/05/11 15:50:29;;;;;;;1.25;1.13;;;24.40;43.90;;;;;;5013287;28;20026;-61
2021/05/11 15:53:01;;;;;;;1.73;1.30;;;24.40;44.10;;;;;;5014284;28;20029;-59
2021/05/11 15:55:27;;;;;;;1.67;1.13;;;24.40;44.30;;;;;;5008637;28;20033;-55
2021/05/11 15:57:53;;;;;;;1.40;1.00;;;24.40;44.40;;;;;;5015614;28;20022;-58
2021/05/11 16:00:20;;;;;;;1.13;1.02;;;24.40;44.40;;;;;;5014664;28;20079;-57
2021/05/11 16:02:46;;;;;;;0.95;0.88;;;24.40;44.40;;;;;;5014468;28;20026;-58
2021/05/11 16:05:13;;;;;;;0.93;0.80;;;24.40;44.40;;;;;;5013385;28;20472;-56
2021/05/11 16:07:39;;;;;;;1.45;0.98;;;24.40;44.40;;;;;;5014160;28;20130;-55
2021/05/11 16:10:09;;;;;;;1.42;1.10;;;24.40;44.30;;;;;;5014317;28;20042;-59
2021/05/11 16:12:36;;;;;;;1.85;1.30;;;24.40;44.30;;;;;;5011459;28;20026;-58
2021/05/11 16:15:11;;;;;;;1.20;0.98;;;24.40;44.30;;;;;;5012718;28;20373;-61
2021/05/11 16:17:37;;;;;;;1.15;0.85;;;24.50;44.40;;;;;;5014925;28;20046;-57
2021/05/11 16:20:05;;;;;;;1.30;1.05;;;24.50;44.40;;;;;;5014849;28;20033;-58
2021/05/11 16:22:32;;;;;;;1.90;1.20;;;24.50;44.40;;;;;;5014535;28;20119;-63
2021/05/11 16:24:58;;;;;;;1.00;0.90;;;24.50;44.40;;;;;;5013104;28;20080;-62
2021/05/11 16:27:24;;;;;;;1.92;1.02;;;24.50;44.40;;;;;;4997822;28;20038;-61
2021/05/11 16:29:51;;;;;;;1.05;0.70;;;24.60;44.50;;;;;;4999101;28;20018;-56
2021/05/11 16:32:17;;;;;;;0.70;0.70;;;24.60;44.50;;;;;;5003039;28;20037;-55
2021/05/11 16:34:43;;;;;;;1.73;1.10;;;24.60;44.50;;;;;;5013391;28;20379;-60
2021/05/11 16:37:10;;;;;;;1.15;0.98;;;24.60;44.40;;;;;;5012956;28;20057;-61
2021/05/11 16:39:36;;;;;;;1.05;0.90;;;24.60;44.50;;;;;;5012036;28;20042;-58
2021/05/11 16:42:03;;;;;;;1.30;1.02;;;24.60;44.40;;;;;;5012345;28;20045;-59
2021/05/11 16:44:29;;;;;;;1.38;1.08;;;24.60;45.10;;;;;;5011964;28;20364;-62
2021/05/11 16:46:56;;;;;;;1.00;0.98;;;24.60;44.40;;;;;;5011859;28;20037;-57
2021/05/11 16:49:22;;;;;;;1.33;1.02;;;24.60;44.40;;;;;;5012051;28;20037;-59
2021/05/11 16:51:48;;;;;;;3.67;1.00;;;24.60;44.40;;;;;;5013176;28;20034;-57
2021/05/11 16:54:14;;;;;;;1.30;1.20;;;24.60;44.40;;;;;;5010851;28;20028;-56
2021/05/11 16:56:40;;;;;;;1.73;1.25;;;24.60;44.40;;;;;;5010846;28;20051;-59
2021/05/11 16:59:06;;;;;;;1.23;1.02;;;24.60;44.30;;;;;;5011745;28;20454;-60
2021/05/11 17:01:33;;;;;;;1.02;0.90;;;24.60;44.40;;;;;;5012078;28;20077;-60
2021/05/11 17:03:58;;;;;;;1.65;0.90;;;24.60;44.40;;;;;;5011531;28;20034;-53
2021/05/11 17:06:26;;;;;;;1.63;1.05;;;24.50;44.30;;;;;;5011418;28;20085;-57
2021/05/11 17:08:53;;;;;;;1.13;1.00;;;24.50;44.30;;;;;;5011338;28;20070;-59
2021/05/11 17:11:20;;;;;;;0.98;0.93;;;24.40;44.40;;;;;;5011883;28;20356;-57
2021/05/11 17:13:47;;;;;;;1.52;1.05;;;24.40;44.30;;;;;;5010362;28;20018;-54
2021/05/11 17:16:14;;;;;;;2.03;1.00;;;24.40;44.30;;;;;;5009661;28;20053;-59
2021/05/11 17:18:40;;;;;;;1.42;1.00;;;24.40;44.40;;;;;;5011045;28;20030;-60
2021/05/11 17:21:09;;;;;;;1.73;1.02;;;24.30;44.40;;;;;;5011253;28;20026;-56